Time;durP1;ratioP1;P1;durP2;ratioP2;P2;SDS_P1;SDS_P2;PMS_P1;PMS_P2;Temp;Humidity;BMP_temperature;BMP_pressure;BME280_temperature;BME280_humidity;BME280_pressure;Samples;Min_cycle;Max_cycle;Signal;HPM_P1;HPM_P2
2022/02/28 00:00:52;;;;;;;8.88;6.63;;;;;;;;;;5053118;28;20178;-82
2022/02/28 00:03:18;;;;;;;10.07;6.75;;;;;;;;;;5035377;28;20167;-81
2022/02/28 00:05:45;;;;;;;9.35;7.50;;;;;;;;;;5011524;28;20186;-82
2022/02/28 00:08:11;;;;;;;10.15;6.88;;;;;;;;;;5015788;28;20571;-82
2022/02/28 00:10:37;;;;;;;10.80;7.95;;;;;;;;;;5025976;28;20194;-81
2022/02/28 00:13:03;;;;;;;9.52;7.35;;;;;;;;;;5027727;28;20241;-82
2022/02/28 00:15:30;;;;;;;9.35;7.25;;;;;;;;;;5021535;28;20829;-81
2022/02/28 00:17:56;;;;;;;9.90;6.60;;;;;;;;;;5014491;28;20278;-82
2022/02/28 00:20:22;;;;;;;11.68;7.45;;;;;;;;;;5033020;28;20183;-82
2022/02/28 00:22:49;;;;;;;10.77;7.00;;;;;;;;;;5025077;28;20186;-82
2022/02/28 00:25:16;;;;;;;8.77;6.10;;;;;;;;;;5026288;28;20179;-82
2022/02/28 00:27:42;;;;;;;11.05;6.65;;;;;;;;;;5024793;28;20778;-81
2022/02/28 00:30:09;;;;;;;10.10;6.85;;;;;;;;;;5012765;28;20187;-82
2022/02/28 00:32:35;;;;;;;9.98;7.15;;;;;;;;;;5015074;28;20194;-82
2022/02/28 00:35:01;;;;;;;7.70;5.75;;;;;;;;;;5020868;28;20278;-82
2022/02/28 00:37:27;;;;;;;7.53;6.47;;;;;;;;;;5025164;28;20214;-82
2022/02/28 00:39:53;;;;;;;9.60;6.72;;;;;;;;;;5025855;28;20246;-82
2022/02/28 00:42:19;;;;;;;6.28;5.28;;;;;;;;;;5027696;28;20174;-82
2022/02/28 00:44:45;;;;;;;10.93;6.07;;;;;;;;;;5020927;28;20652;-82
2022/02/28 00:47:11;;;;;;;9.32;6.07;;;;;;;;;;5018102;28;20208;-82
2022/02/28 00:49:37;;;;;;;7.75;5.88;;;;;;;;;;5034142;28;20200;-82
2022/02/28 00:52:03;;;;;;;6.60;4.85;;;;;;;;;;5027237;28;20190;-82
2022/02/28 00:54:30;;;;;;;8.02;6.07;;;;;;;;;;5024696;28;20183;-82
2022/02/28 00:56:56;;;;;;;5.47;4.55;;;;;;;;;;5044952;28;20262;-82
2022/02/28 00:59:22;;;;;;;6.32;5.22;;;;;;;;;;5014517;28;20211;-82
2022/02/28 01:01:48;;;;;;;6.55;5.63;;;;;;;;;;5016135;28;20217;-82
2022/02/28 01:04:14;;;;;;;7.22;5.03;;;;;;;;;;5025532;28;20266;-82
2022/02/28 01:06:40;;;;;;;8.48;5.43;;;;;;;;;;5022657;28;20182;-83
2022/02/28 01:09:07;;;;;;;6.72;4.80;;;;;;;;;;5027196;28;20207;-82
2022/02/28 01:11:33;;;;;;;7.15;5.03;;;;;;;;;;5013905;28;20230;-82
2022/02/28 01:13:59;;;;;;;8.13;5.47;;;;;;;;;;5013550;28;20187;-82
2022/02/28 01:16:25;;;;;;;7.60;5.15;;;;;;;;;;5028631;28;20182;-82
2022/02/28 01:18:51;;;;;;;9.50;5.93;;;;;;;;;;5040670;28;20191;-82
2022/02/28 01:21:17;;;;;;;6.88;5.70;;;;;;;;;;5010335;28;20213;-82
2022/02/28 01:23:43;;;;;;;6.97;5.20;;;;;;;;;;5014205;28;20209;-82
2022/02/28 01:26:09;;;;;;;7.20;5.57;;;;;;;;;;5030500;28;20182;-82
2022/02/28 01:28:36;;;;;;;7.13;5.13;;;;;;;;;;5022699;28;20178;-82
2022/02/28 01:31:02;;;;;;;6.65;4.68;;;;;;;;;;5040193;28;20240;-82
2022/02/28 01:33:28;;;;;;;6.70;6.00;;;;;;;;;;5009277;28;20179;-82
2022/02/28 01:35:54;;;;;;;6.25;4.88;;;;;;;;;;5045157;28;20207;-82
2022/02/28 01:38:20;;;;;;;6.55;5.00;;;;;;;;;;5013149;28;20211;-82
2022/02/28 01:40:47;;;;;;;6.85;5.15;;;;;;;;;;5013848;28;20373;-82
2022/02/28 01:43:13;;;;;;;9.10;6.18;;;;;;;;;;5009430;28;20183;-82
2022/02/28 01:45:39;;;;;;;5.55;4.70;;;;;;;;;;5047415;28;20266;-82
2022/02/28 01:48:05;;;;;;;8.68;5.65;;;;;;;;;;5040577;28;20174;-82
2022/02/28 01:50:31;;;;;;;7.05;4.95;;;;;;;;;;5015134;28;20183;-82
2022/02/28 01:52:57;;;;;;;8.02;5.50;;;;;;;;;;5029594;28;20193;-82
2022/02/28 01:55:24;;;;;;;5.97;5.00;;;;;;;;;;5028926;28;20194;-82
2022/02/28 01:57:50;;;;;;;8.15;5.82;;;;;;;;;;5019502;28;20266;-82
2022/02/28 02:00:18;;;;;;;6.32;4.60;;;;;;;;;;5025202;28;20175;-81
2022/02/28 02:02:44;;;;;;;8.20;5.25;;;;;;;;;;5024570;28;20179;-81
2022/02/28 02:05:11;;;;;;;6.05;5.13;;;;;;;;;;5013259;28;20238;-82
2022/02/28 02:07:37;;;;;;;9.30;5.13;;;;;;;;;;5012483;28;20190;-82
2022/02/28 02:10:08;;;;;;;9.75;5.60;;;;;;;;;;5025852;28;20218;-81
2022/02/28 02:12:34;;;;;;;7.68;5.50;;;;;;;;;;5023052;28;20187;-82
2022/02/28 02:15:01;;;;;;;10.50;5.63;;;;;;;;;;5027087;28;20183;-82
2022/02/28 02:17:27;;;;;;;5.90;4.75;;;;;;;;;;5027408;28;20282;-82
2022/02/28 02:19:54;;;;;;;6.40;4.30;;;;;;;;;;5013760;28;20194;-82
2022/02/28 02:22:21;;;;;;;9.63;5.40;;;;;;;;;;5027120;28;20194;-81
2022/02/28 02:24:47;;;;;;;6.75;4.75;;;;;;;;;;5039265;28;20179;-82
2022/02/28 02:27:13;;;;;;;5.70;4.25;;;;;;;;;;5009438;28;20194;-82
2022/02/28 02:29:40;;;;;;;7.00;5.55;;;;;;;;;;5027920;28;20187;-82
2022/02/28 02:32:09;;;;;;;5.90;5.18;;;;;;;;;;5022210;28;20419;-82
2022/02/28 02:34:35;;;;;;;6.43;4.50;;;;;;;;;;5012600;28;20189;-82
2022/02/28 02:37:01;;;;;;;6.15;5.28;;;;;;;;;;5034719;28;20252;-81
2022/02/28 02:39:27;;;;;;;7.05;5.20;;;;;;;;;;5023677;28;20779;-82
2022/02/28 02:41:54;;;;;;;7.20;5.25;;;;;;;;;;5052448;28;20246;-82
2022/02/28 02:44:20;;;;;;;6.57;4.13;;;;;;;;;;5022964;28;20194;-81
2022/02/28 02:46:47;;;;;;;4.88;4.47;;;;;;;;;;5029573;28;20203;-81
2022/02/28 02:49:14;;;;;;;4.75;4.22;;;;;;;;;;5026703;28;20182;-81
2022/02/28 02:51:40;;;;;;;6.95;4.72;;;;;;;;;;5021672;28;20235;-81
2022/02/28 02:54:06;;;;;;;5.32;4.28;;;;;;;;;;5011049;28;20211;-81
2022/02/28 02:56:32;;;;;;;4.35;3.70;;;;;;;;;;5015692;28;20190;-81
2022/02/28 02:58:58;;;;;;;5.28;4.75;;;;;;;;;;5018242;28;20247;-82
2022/02/28 03:01:26;;;;;;;4.25;3.83;;;;;;;;;;5026322;28;20270;-81
2022/02/28 03:03:53;;;;;;;5.43;4.70;;;;;;;;;;5034686;28;20206;-81
2022/02/28 03:06:19;;;;;;;5.55;4.15;;;;;;;;;;5008207;28;20206;-82
2022/02/28 03:08:45;;;;;;;5.53;4.10;;;;;;;;;;5029316;28;20175;-82
2022/02/28 03:11:11;;;;;;;8.48;4.45;;;;;;;;;;5016996;28;20213;-81
2022/02/28 03:13:37;;;;;;;7.63;5.47;;;;;;;;;;5027049;28;20561;-81
2022/02/28 03:16:03;;;;;;;4.93;4.00;;;;;;;;;;5023726;28;20182;-81
2022/02/28 03:18:29;;;;;;;7.25;4.50;;;;;;;;;;5022282;28;20206;-81
2022/02/28 03:20:55;;;;;;;5.63;3.95;;;;;;;;;;5022403;28;20180;-81
2022/02/28 03:23:21;;;;;;;4.88;3.72;;;;;;;;;;5015204;28;20262;-81
2022/02/28 03:25:47;;;;;;;3.92;3.60;;;;;;;;;;5011176;28;20178;-81
2022/02/28 03:28:13;;;;;;;7.32;4.20;;;;;;;;;;5037302;28;20201;-81
2022/02/28 03:30:39;;;;;;;4.53;3.50;;;;;;;;;;5036277;28;20186;-82
2022/02/28 03:33:05;;;;;;;4.82;4.10;;;;;;;;;;5027620;28;20175;-82
2022/02/28 03:35:31;;;;;;;4.97;4.35;;;;;;;;;;5020933;28;20644;-81
2022/02/28 03:37:57;;;;;;;3.40;3.08;;;;;;;;;;5018406;28;20211;-81
2022/02/28 03:40:23;;;;;;;8.40;4.20;;;;;;;;;;5033202;28;20226;-81
2022/02/28 03:42:49;;;;;;;3.88;3.15;;;;;;;;;;5022206;28;20202;-81
2022/02/28 03:45:18;;;;;;;5.60;3.50;;;;;;;;;;5038929;28;20179;-81
2022/02/28 03:47:44;;;;;;;9.00;4.10;;;;;;;;;;5022605;28;20175;-81
2022/02/28 03:50:10;;;;;;;3.80;3.38;;;;;;;;;;5028078;28;20208;-81
2022/02/28 03:52:36;;;;;;;5.07;3.45;;;;;;;;;;5031165;28;20634;-81
2022/02/28 03:55:03;;;;;;;4.78;3.33;;;;;;;;;;5022765;28;20190;-81
2022/02/28 03:57:29;;;;;;;4.00;3.20;;;;;;;;;;5035367;28;20203;-81
2022/02/28 03:59:55;;;;;;;5.03;3.92;;;;;;;;;;5042625;28;20172;-82
2022/02/28 04:02:21;;;;;;;6.90;3.67;;;;;;;;;;5024625;28;20648;-81
2022/02/28 04:04:47;;;;;;;6.60;4.05;;;;;;;;;;5026710;28;20222;-81
2022/02/28 04:07:13;;;;;;;4.50;4.05;;;;;;;;;;5041620;28;20205;-81
2022/02/28 04:09:39;;;;;;;6.07;3.25;;;;;;;;;;5021611;28;20530;-81
2022/02/28 04:12:06;;;;;;;5.32;4.75;;;;;;;;;;5052202;28;20170;-81
2022/02/28 04:14:32;;;;;;;5.22;3.65;;;;;;;;;;5023517;28;20276;-82
2022/02/28 04:16:58;;;;;;;4.32;3.90;;;;;;;;;;5027829;28;20199;-81
2022/02/28 04:19:24;;;;;;;5.35;3.90;;;;;;;;;;5022284;28;20195;-81
2022/02/28 04:21:50;;;;;;;4.65;3.33;;;;;;;;;;5007968;28;20551;-82
2022/02/28 04:24:16;;;;;;;4.63;4.10;;;;;;;;;;5023868;28;20641;-82
2022/02/28 04:26:44;;;;;;;4.78;3.78;;;;;;;;;;5026734;28;20217;-81
2022/02/28 04:29:10;;;;;;;8.50;3.78;;;;;;;;;;5025957;28;20171;-82
2022/02/28 04:31:36;;;;;;;6.95;3.70;;;;;;;;;;5006659;28;20190;-82
2022/02/28 04:34:02;;;;;;;6.13;3.90;;;;;;;;;;5042202;28;20186;-82
2022/02/28 04:36:28;;;;;;;3.50;3.20;;;;;;;;;;5021818;28;20187;-82
2022/02/28 04:38:54;;;;;;;7.03;3.80;;;;;;;;;;5055107;28;20178;-82
2022/02/28 04:41:20;;;;;;;4.57;3.60;;;;;;;;;;5028601;28;20286;-81
2022/02/28 04:43:46;;;;;;;4.88;4.03;;;;;;;;;;5026621;28;20183;-82
2022/02/28 04:46:12;;;;;;;4.65;3.88;;;;;;;;;;5021056;28;20182;-81
2022/02/28 04:48:39;;;;;;;5.15;3.72;;;;;;;;;;5069615;28;20206;-82
2022/02/28 04:51:05;;;;;;;3.95;3.55;;;;;;;;;;5028460;28;20179;-82
2022/02/28 04:53:31;;;;;;;7.43;4.38;;;;;;;;;;5029314;28;20210;-82
2022/02/28 04:55:58;;;;;;;3.65;3.28;;;;;;;;;;5029526;28;20202;-82
2022/02/28 04:58:24;;;;;;;4.50;4.10;;;;;;;;;;5024462;28;20397;-82
2022/02/28 05:00:50;;;;;;;4.25;3.13;;;;;;;;;;5025507;28;20191;-82
2022/02/28 05:03:16;;;;;;;7.07;3.67;;;;;;;;;;5052436;28;20185;-82
2022/02/28 05:05:42;;;;;;;4.10;3.72;;;;;;;;;;5024454;28;20190;-82
2022/02/28 05:08:08;;;;;;;5.35;3.60;;;;;;;;;;5028641;28;20209;-82
2022/02/28 05:10:34;;;;;;;5.47;3.80;;;;;;;;;;5034559;28;20191;-82
2022/02/28 05:13:00;;;;;;;5.57;3.80;;;;;;;;;;5025296;28;20222;-82
2022/02/28 05:15:26;;;;;;;5.25;4.25;;;;;;;;;;5037804;28;20179;-82
2022/02/28 05:17:52;;;;;;;7.38;4.07;;;;;;;;;;5018801;28;20212;-82
2022/02/28 05:20:18;;;;;;;6.13;4.03;;;;;;;;;;5027631;28;20218;-82
2022/02/28 05:22:45;;;;;;;4.35;3.72;;;;;;;;;;5017913;28;20656;-82
2022/02/28 05:25:11;;;;;;;4.85;3.53;;;;;;;;;;5024233;28;20221;-82
2022/02/28 05:27:37;;;;;;;5.40;3.83;;;;;;;;;;5009183;28;20186;-82
2022/02/28 05:30:04;;;;;;;4.60;3.87;;;;;;;;;;5027550;28;20183;-82
2022/02/28 05:32:30;;;;;;;4.75;4.28;;;;;;;;;;5029296;28;20541;-82
2022/02/28 05:34:56;;;;;;;5.97;4.20;;;;;;;;;;5013792;28;20190;-82
2022/02/28 05:37:22;;;;;;;5.30;3.00;;;;;;;;;;5028725;28;20210;-82
2022/02/28 05:39:48;;;;;;;8.60;4.05;;;;;;;;;;5044689;28;20244;-82
2022/02/28 05:42:14;;;;;;;5.10;4.22;;;;;;;;;;5021539;28;20205;-82
2022/02/28 05:44:40;;;;;;;7.55;4.15;;;;;;;;;;5018986;28;20189;-82
2022/02/28 05:47:06;;;;;;;5.22;3.85;;;;;;;;;;5023189;28;20182;-82
2022/02/28 05:49:32;;;;;;;8.35;4.47;;;;;;;;;;5038505;28;20767;-82
2022/02/28 05:51:58;;;;;;;3.95;3.35;;;;;;;;;;5025312;28;20214;-82
2022/02/28 05:54:24;;;;;;;6.22;4.65;;;;;;;;;;5025016;28;20208;-82
2022/02/28 05:56:50;;;;;;;5.38;4.00;;;;;;;;;;5012087;28;20253;-82
2022/02/28 05:59:16;;;;;;;8.05;4.53;;;;;;;;;;5028084;28;20317;-82
2022/02/28 06:01:42;;;;;;;5.18;4.07;;;;;;;;;;5026754;28;20183;-82
2022/02/28 06:04:08;;;;;;;6.43;4.05;;;;;;;;;;5011536;28;20234;-82
2022/02/28 06:06:34;;;;;;;6.97;4.35;;;;;;;;;;5008731;28;20202;-82
2022/02/28 06:09:03;;;;;;;7.00;5.28;;;;;;;;;;5012153;28;20167;-82
2022/02/28 06:11:29;;;;;;;6.00;3.95;;;;;;;;;;5018604;28;20182;-82
2022/02/28 06:13:55;;;;;;;6.03;4.10;;;;;;;;;;5034243;28;20171;-82
2022/02/28 06:16:21;;;;;;;7.13;4.55;;;;;;;;;;5023639;28;20191;-82
2022/02/28 06:18:47;;;;;;;6.85;3.83;;;;;;;;;;5023439;28;20209;-82
2022/02/28 06:21:13;;;;;;;6.60;4.28;;;;;;;;;;5037151;28;20257;-82
2022/02/28 06:23:39;;;;;;;5.80;4.47;;;;;;;;;;5023515;28;20236;-82
2022/02/28 06:26:05;;;;;;;4.80;4.05;;;;;;;;;;5023935;28;20295;-83
2022/02/28 06:28:32;;;;;;;6.40;4.10;;;;;;;;;;5029655;28;20254;-82
2022/02/28 06:30:59;;;;;;;4.10;3.70;;;;;;;;;;5038135;28;20178;-82
2022/02/28 06:33:25;;;;;;;9.95;4.88;;;;;;;;;;5036524;28;20217;-82
2022/02/28 06:35:51;;;;;;;6.70;4.25;;;;;;;;;;5058315;28;20185;-82
2022/02/28 06:38:17;;;;;;;5.22;4.07;;;;;;;;;;5021785;28;20282;-81
2022/02/28 06:40:46;;;;;;;7.95;4.50;;;;;;;;;;5018768;28;20213;-82
2022/02/28 06:43:12;;;;;;;5.97;3.85;;;;;;;;;;5035470;28;20666;-82
2022/02/28 06:45:39;;;;;;;6.80;3.85;;;;;;;;;;5022763;28;20384;-82
2022/02/28 06:48:05;;;;;;;5.28;4.20;;;;;;;;;;5025439;28;20210;-82
2022/02/28 06:50:31;;;;;;;5.25;3.70;;;;;;;;;;5013755;28;20187;-82
2022/02/28 06:52:57;;;;;;;5.60;3.78;;;;;;;;;;5013016;28;20225;-82
2022/02/28 06:55:23;;;;;;;10.05;4.47;;;;;;;;;;5027494;28;20182;-82
2022/02/28 06:57:49;;;;;;;14.40;4.70;;;;;;;;;;5037951;28;20285;-83
2022/02/28 07:00:15;;;;;;;12.90;5.53;;;;;;;;;;5035950;28;20198;-82
2022/02/28 07:02:41;;;;;;;6.32;5.25;;;;;;;;;;5027570;28;20187;-83
2022/02/28 07:05:07;;;;;;;6.13;4.50;;;;;;;;;;5034078;28;20263;-82
2022/02/28 07:07:34;;;;;;;9.75;5.45;;;;;;;;;;5021858;28;20571;-82
2022/02/28 07:10:00;;;;;;;6.75;5.25;;;;;;;;;;5014563;28;20312;-82
2022/02/28 07:12:26;;;;;;;5.78;3.90;;;;;;;;;;5035772;28;20182;-83
2022/02/28 07:14:52;;;;;;;5.00;4.47;;;;;;;;;;5061997;28;20186;-83
2022/02/28 07:17:18;;;;;;;7.28;4.70;;;;;;;;;;5024909;28;20205;-83
2022/02/28 07:19:44;;;;;;;10.65;5.07;;;;;;;;;;5040674;28;20179;-83
2022/02/28 07:22:10;;;;;;;7.85;5.18;;;;;;;;;;5035316;28;20648;-83
2022/02/28 07:24:36;;;;;;;6.05;4.65;;;;;;;;;;5007544;28;20194;-83
2022/02/28 07:27:02;;;;;;;5.13;4.63;;;;;;;;;;5038790;28;20242;-81
2022/02/28 07:29:28;;;;;;;7.03;5.07;;;;;;;;;;5024415;28;20194;-82
2022/02/28 07:31:54;;;;;;;7.93;5.07;;;;;;;;;;5022999;28;20202;-82
2022/02/28 07:34:20;;;;;;;7.50;4.90;;;;;;;;;;5011891;28;20191;-82
2022/02/28 07:36:46;;;;;;;9.23;5.05;;;;;;;;;;5022391;28;20210;-82
2022/02/28 07:39:12;;;;;;;7.45;4.97;;;;;;;;;;5035780;28;20214;-83
2022/02/28 07:41:39;;;;;;;7.13;5.05;;;;;;;;;;5019737;28;20186;-83
2022/02/28 07:44:07;;;;;;;11.65;5.78;;;;;;;;;;5027073;28;20280;-82
2022/02/28 07:46:33;;;;;;;7.65;5.57;;;;;;;;;;5016723;28;20221;-81
2022/02/28 07:48:59;;;;;;;7.40;5.72;;;;;;;;;;5023934;28;20582;-82
2022/02/28 07:51:25;;;;;;;11.18;7.30;;;;;;;;;;5023009;28;20182;-83
2022/02/28 07:53:51;;;;;;;10.95;6.07;;;;;;;;;;5036295;28;20259;-83
2022/02/28 07:56:17;;;;;;;9.52;6.63;;;;;;;;;;5013161;28;20642;-85
2022/02/28 07:58:43;;;;;;;11.32;6.53;;;;;;;;;;5028878;28;20206;-89
2022/02/28 08:01:09;;;;;;;12.35;6.90;;;;;;;;;;5022921;28;20178;-90
2022/02/28 08:03:35;;;;;;;11.27;7.82;;;;;;;;;;5026523;28;20240;-91
2022/02/28 08:06:01;;;;;;;14.80;8.30;;;;;;;;;;5018010;28;20264;-89
2022/02/28 08:08:27;;;;;;;16.98;9.00;;;;;;;;;;5050203;28;20593;-87
2022/02/28 08:10:53;;;;;;;21.90;9.07;;;;;;;;;;5031825;28;20194;-87
2022/02/28 08:13:19;;;;;;;13.57;7.28;;;;;;;;;;5020449;28;20187;-88
2022/02/28 08:15:45;;;;;;;17.50;9.38;;;;;;;;;;5034690;28;20202;-87
2022/02/28 08:18:11;;;;;;;14.40;8.27;;;;;;;;;;5018510;28;20202;-88
2022/02/28 08:20:37;;;;;;;12.98;7.05;;;;;;;;;;5032091;28;20232;-87
2022/02/28 08:23:04;;;;;;;13.38;6.95;;;;;;;;;;5018869;28;20189;-88
2022/02/28 08:25:30;;;;;;;9.55;7.40;;;;;;;;;;5024921;28;20182;-88
2022/02/28 08:27:56;;;;;;;13.43;7.65;;;;;;;;;;5029582;28;20198;-85
2022/02/28 08:30:22;;;;;;;9.02;6.80;;;;;;;;;;5018184;28;20250;-87
2022/02/28 08:32:48;;;;;;;9.98;7.40;;;;;;;;;;5054547;28;20213;-85
2022/02/28 08:35:18;;;;;;;9.50;6.40;;;;;;;;;;5017162;28;20202;-84
2022/02/28 08:37:45;;;;;;;12.35;6.57;;;;;;;;;;5024053;28;20265;-83
2022/02/28 08:40:11;;;;;;;12.73;8.48;;;;;;;;;;5037561;28;20227;-83
2022/02/28 08:42:37;;;;;;;11.02;7.53;;;;;;;;;;5039422;28;20250;-84
2022/02/28 08:45:04;;;;;;;10.10;7.82;;;;;;;;;;5056366;28;20181;-84
2022/02/28 08:47:30;;;;;;;11.35;7.93;;;;;;;;;;5043237;28;20181;-84
2022/02/28 08:49:56;;;;;;;15.52;9.02;;;;;;;;;;5029376;28;20276;-83
2022/02/28 08:52:22;;;;;;;12.50;9.32;;;;;;;;;;5014127;28;20202;-83
2022/02/28 08:54:48;;;;;;;10.88;9.20;;;;;;;;;;5031986;28;20656;-83
2022/02/28 08:57:14;;;;;;;15.13;8.77;;;;;;;;;;5016468;28;20656;-83
2022/02/28 08:59:40;;;;;;;11.82;8.13;;;;;;;;;;5011071;28;20182;-82
2022/02/28 09:02:06;;;;;;;14.25;8.32;;;;;;;;;;5011442;28;20217;-83
2022/02/28 09:04:32;;;;;;;10.05;7.43;;;;;;;;;;5039232;28;20213;-82
2022/02/28 09:06:58;;;;;;;9.00;7.63;;;;;;;;;;5023520;28;20182;-84
2022/02/28 09:09:25;;;;;;;10.77;7.38;;;;;;;;;;5047120;28;20186;-82
2022/02/28 09:11:51;;;;;;;10.05;6.53;;;;;;;;;;5028436;28;20182;-82
2022/02/28 09:14:17;;;;;;;13.80;6.93;;;;;;;;;;5043406;28;20186;-82
2022/02/28 09:16:43;;;;;;;15.07;7.38;;;;;;;;;;5031561;28;20194;-82
2022/02/28 09:19:09;;;;;;;11.20;7.07;;;;;;;;;;5045654;28;20210;-83
2022/02/28 09:21:36;;;;;;;9.00;6.82;;;;;;;;;;5023807;28;20189;-83
2022/02/28 09:24:03;;;;;;;8.45;6.15;;;;;;;;;;5048319;28;20224;-83
2022/02/28 09:26:29;;;;;;;8.02;6.15;;;;;;;;;;5025225;28;20179;-82
2022/02/28 09:28:55;;;;;;;9.15;5.68;;;;;;;;;;5025155;28;20211;-83
2022/02/28 09:31:21;;;;;;;8.32;5.80;;;;;;;;;;5040914;28;20530;-83
2022/02/28 09:33:47;;;;;;;8.25;6.43;;;;;;;;;;5056962;28;20217;-83
2022/02/28 09:36:13;;;;;;;9.40;6.00;;;;;;;;;;5016495;28;20170;-83
2022/02/28 09:38:39;;;;;;;8.45;6.50;;;;;;;;;;5013393;28;20234;-86
2022/02/28 09:41:05;;;;;;;7.65;5.72;;;;;;;;;;5035788;28;20201;-82
2022/02/28 09:43:33;;;;;;;6.47;5.32;;;;;;;;;;5024298;28;20189;-84
2022/02/28 09:46:01;;;;;;;7.05;5.32;;;;;;;;;;5035346;28;20174;-85
2022/02/28 09:48:27;;;;;;;9.07;5.43;;;;;;;;;;5024276;28;20286;-81
2022/02/28 09:50:53;;;;;;;6.82;4.72;;;;;;;;;;5023575;28;20179;-82
2022/02/28 09:53:19;;;;;;;8.35;4.45;;;;;;;;;;5013364;28;20229;-83
2022/02/28 09:55:46;;;;;;;6.72;4.55;;;;;;;;;;5024437;28;20250;-82
2022/02/28 09:58:12;;;;;;;5.00;4.50;;;;;;;;;;5028203;28;20206;-81
2022/02/28 10:00:43;;;;;;;6.75;4.25;;;;;;;;;;5008593;28;20172;-82
2022/02/28 10:03:09;;;;;;;6.68;4.30;;;;;;;;;;5034249;28;20624;-82
2022/02/28 10:05:35;;;;;;;5.53;4.70;;;;;;;;;;5023111;28;20210;-80
2022/02/28 10:08:06;;;;;;;9.52;5.85;;;;;;;;;;5020167;28;20210;-81
2022/02/28 10:10:34;;;;;;;7.80;4.75;;;;;;;;;;5012918;28;20853;-82
2022/02/28 10:13:01;;;;;;;5.88;5.22;;;;;;;;;;5032102;28;20197;-83
2022/02/28 10:15:27;;;;;;;5.95;5.30;;;;;;;;;;5033865;28;20193;-81
2022/02/28 10:17:56;;;;;;;8.43;5.55;;;;;;;;;;5055750;28;20242;-82
2022/02/28 10:20:22;;;;;;;8.60;4.38;;;;;;;;;;5044134;28;20190;-83
2022/02/28 10:23:05;;;;;;;7.30;5.10;;;;;;;;;;5012865;28;20179;-83
2022/02/28 10:25:36;;;;;;;8.20;6.05;;;;;;;;;;5023745;28;20195;-83
2022/02/28 10:28:19;;;;;;;9.43;5.25;;;;;;;;;;5033487;28;20547;-82
2022/02/28 10:30:51;;;;;;;10.55;5.60;;;;;;;;;;5031433;28;20186;-82
2022/02/28 10:33:17;;;;;;;8.88;5.25;;;;;;;;;;5019239;28;20213;-83
2022/02/28 10:36:09;;;;;;;6.63;5.13;;;;;;;;;;5028494;28;20182;-83
2022/02/28 10:38:35;;;;;;;8.43;4.75;;;;;;;;;;5027565;28;20198;-84
2022/02/28 10:41:04;;;;;;;7.53;4.50;;;;;;;;;;5026336;28;20226;-83
2022/02/28 10:43:34;;;;;;;7.65;4.38;;;;;;;;;;5026553;28;20185;-83
2022/02/28 10:46:13;;;;;;;6.85;5.45;;;;;;;;;;5009774;28;20233;-87
2022/02/28 10:48:39;;;;;;;6.70;5.97;;;;;;;;;;5024224;28;20728;-84
2022/02/28 10:51:14;;;;;;;7.10;4.70;;;;;;;;;;5050708;28;20178;-84
2022/02/28 10:53:40;;;;;;;9.32;5.05;;;;;;;;;;5022083;28;20191;-85
2022/02/28 10:56:06;;;;;;;8.05;5.15;;;;;;;;;;5047245;28;20197;-86
2022/02/28 10:58:34;;;;;;;8.50;6.47;;;;;;;;;;5029894;28;20316;-86
2022/02/28 11:01:04;;;;;;;6.47;5.22;;;;;;;;;;5023869;28;20179;-84
2022/02/28 11:03:50;;;;;;;5.47;4.57;;;;;;;;;;5034865;28;20667;-85
2022/02/28 11:06:20;;;;;;;7.35;4.68;;;;;;;;;;5022167;28;20205;-83
2022/02/28 11:08:46;;;;;;;6.60;5.10;;;;;;;;;;5037023;28;20214;-84
2022/02/28 11:11:14;;;;;;;7.15;5.35;;;;;;;;;;5034868;28;20190;-84
2022/02/28 11:13:44;;;;;;;6.03;4.72;;;;;;;;;;5035205;28;20257;-83
2022/02/28 11:16:13;;;;;;;5.70;5.10;;;;;;;;;;5022534;28;20195;-84
2022/02/28 11:18:39;;;;;;;9.15;4.90;;;;;;;;;;5040223;28;20213;-83
2022/02/28 11:21:07;;;;;;;6.18;5.25;;;;;;;;;;5049748;28;20170;-84
2022/02/28 11:23:33;;;;;;;6.85;5.13;;;;;;;;;;5026080;28;20195;-83
2022/02/28 11:25:59;;;;;;;5.28;4.78;;;;;;;;;;5043668;28;20187;-84
2022/02/28 11:28:25;;;;;;;5.03;4.50;;;;;;;;;;5031467;28;20611;-84
2022/02/28 11:31:01;;;;;;;4.65;4.25;;;;;;;;;;5022334;28;20178;-84
2022/02/28 11:33:27;;;;;;;6.57;4.82;;;;;;;;;;5021870;28;20241;-83
2022/02/28 11:35:54;;;;;;;6.57;5.00;;;;;;;;;;5043360;28;20182;-84
2022/02/28 11:38:20;;;;;;;5.18;4.50;;;;;;;;;;5011522;28;20214;-84
2022/02/28 11:40:50;;;;;;;11.70;5.77;;;;;;;;;;5026206;28;20639;-83
2022/02/28 11:43:22;;;;;;;6.53;5.40;;;;;;;;;;5033069;28;20464;-82
2022/02/28 11:46:08;;;;;;;5.90;5.15;;;;;;;;;;5037589;28;20174;-83
2022/02/28 11:48:34;;;;;;;5.95;5.00;;;;;;;;;;5018941;28;20185;-84
2022/02/28 11:51:05;;;;;;;5.88;4.78;;;;;;;;;;5047714;28;20178;-85
2022/02/28 11:53:34;;;;;;;13.07;7.00;;;;;;;;;;5018469;28;20191;-83
2022/02/28 11:56:01;;;;;;;9.13;5.47;;;;;;;;;;5048704;28;20186;-83
2022/02/28 11:58:30;;;;;;;6.90;6.20;;;;;;;;;;5053966;28;20226;-84
2022/02/28 12:01:10;;;;;;;13.13;6.55;;;;;;;;;;5034539;28;20745;-85
2022/02/28 12:03:36;;;;;;;10.07;6.35;;;;;;;;;;5045366;28;20213;-83
2022/02/28 12:06:03;;;;;;;10.43;6.45;;;;;;;;;;5030011;28;20179;-85
2022/02/28 12:08:39;;;;;;;6.40;5.30;;;;;;;;;;5031502;28;20186;-83
2022/02/28 12:11:16;;;;;;;6.45;5.53;;;;;;;;;;5030138;28;20182;-83
2022/02/28 12:13:42;;;;;;;7.65;6.10;;;;;;;;;;5016203;28;20195;-85
2022/02/28 12:17:30;;;;;;;7.57;5.87;;;;;;;;;;5028276;28;20190;-89
2022/02/28 12:19:17;;;;;;;7.65;6.50;;;;;;;;;;5022983;28;20471;-83
2022/02/28 12:21:43;;;;;;;9.27;5.73;;;;;;;;;;5053772;28;20180;-84
2022/02/28 12:24:11;;;;;;;7.72;5.55;;;;;;;;;;5034801;28;20466;-84
2022/02/28 12:26:37;;;;;;;8.05;5.90;;;;;;;;;;5045456;28;20268;-84
2022/02/28 12:29:10;;;;;;;6.30;5.70;;;;;;;;;;5053919;28;20282;-84
2022/02/28 12:31:37;;;;;;;7.72;6.32;;;;;;;;;;5026892;28;20219;-86
2022/02/28 12:34:08;;;;;;;9.85;6.00;;;;;;;;;;5059121;28;20216;-86
2022/02/28 12:36:34;;;;;;;7.38;6.43;;;;;;;;;;5057934;28;20729;-83
2022/02/28 12:39:03;;;;;;;9.75;6.70;;;;;;;;;;5050469;28;20667;-86
2022/02/28 12:41:31;;;;;;;6.55;5.75;;;;;;;;;;5033685;28;20194;-84
2022/02/28 12:44:01;;;;;;;6.25;5.65;;;;;;;;;;5022088;28;20182;-88
2022/02/28 12:46:32;;;;;;;9.65;6.82;;;;;;;;;;5038930;28;20187;-86
2022/02/28 12:48:58;;;;;;;9.20;6.90;;;;;;;;;;5024121;28;20186;-86
2022/02/28 12:51:29;;;;;;;8.43;5.90;;;;;;;;;;5053951;28;20218;-90
2022/02/28 12:54:12;;;;;;;8.50;6.63;;;;;;;;;;5055787;28;20597;-85
2022/02/28 12:56:46;;;;;;;8.18;5.78;;;;;;;;;;5014996;28;20186;-85
2022/02/28 12:59:12;;;;;;;9.38;6.28;;;;;;;;;;5021589;28;20178;-85
2022/02/28 13:01:39;;;;;;;7.63;5.82;;;;;;;;;;5031506;28;20215;-85
2022/02/28 13:04:06;;;;;;;8.13;5.50;;;;;;;;;;5044010;28;20210;-84
2022/02/28 13:06:33;;;;;;;6.80;5.18;;;;;;;;;;5044809;28;20226;-83
2022/02/28 13:09:09;;;;;;;8.10;4.50;;;;;;;;;;5024335;28;20178;-84
2022/02/28 13:11:46;;;;;;;4.90;4.07;;;;;;;;;;5010816;28;20207;-83
2022/02/28 13:14:13;;;;;;;6.43;4.60;;;;;;;;;;5025606;28;20332;-83
2022/02/28 13:16:40;;;;;;;7.07;5.35;;;;;;;;;;5028895;28;20179;-89
2022/02/28 13:19:08;;;;;;;12.30;6.13;;;;;;;;;;5027403;28;20585;-87
2022/02/28 13:21:44;;;;;;;8.27;5.68;;;;;;;;;;5046840;28;20244;-87
2022/02/28 13:24:12;;;;;;;7.93;5.57;;;;;;;;;;5026438;28;20555;-87
2022/02/28 13:26:39;;;;;;;5.63;5.10;;;;;;;;;;5028253;28;20185;-86
2022/02/28 13:29:06;;;;;;;6.25;4.95;;;;;;;;;;5031161;28;20210;-85
2022/02/28 13:31:34;;;;;;;7.63;5.25;;;;;;;;;;5038794;28;20194;-86
2022/02/28 13:34:05;;;;;;;5.60;4.90;;;;;;;;;;5028540;28;20242;-87
2022/02/28 13:36:32;;;;;;;5.80;4.72;;;;;;;;;;5006940;28;20225;-87
2022/02/28 13:38:58;;;;;;;6.20;5.05;;;;;;;;;;5044656;28;20210;-85
2022/02/28 13:41:28;;;;;;;6.70;4.82;;;;;;;;;;5028828;28;20275;-84
2022/02/28 13:43:56;;;;;;;4.78;4.22;;;;;;;;;;5052152;28;20188;-87
2022/02/28 13:46:22;;;;;;;5.63;4.35;;;;;;;;;;5024183;28;20690;-85
2022/02/28 13:48:55;;;;;;;5.80;4.67;;;;;;;;;;5048955;28;20264;-86
2022/02/28 13:51:21;;;;;;;4.23;3.50;;;;;;;;;;5036565;28;20436;-90
2022/02/28 13:53:47;;;;;;;6.40;4.10;;;;;;;;;;5059063;28;20777;-83
2022/02/28 13:56:33;;;;;;;5.10;4.60;;;;;;;;;;5022921;28;21073;-84
2022/02/28 13:59:15;;;;;;;4.80;4.30;;;;;;;;;;5013611;28;20443;-84
2022/02/28 14:02:08;;;;;;;5.27;4.40;;;;;;;;;;5044657;28;20505;-85
2022/02/28 14:04:40;;;;;;;5.40;4.30;;;;;;;;;;5042671;28;20446;-86
2022/02/28 14:07:06;;;;;;;4.50;3.80;;;;;;;;;;5021053;28;20418;-85
2022/02/28 14:09:33;;;;;;;5.90;4.73;;;;;;;;;;5043289;28;20426;-86
2022/02/28 14:12:01;;;;;;;5.20;4.70;;;;;;;;;;5036557;28;20519;-86
2022/02/28 14:14:27;;;;;;;4.83;4.13;;;;;;;;;;5024795;28;20453;-84
2022/02/28 14:17:04;;;;;;;4.90;4.00;;;;;;;;;;5032023;28;20765;-85
2022/02/28 14:19:34;;;;;;;6.17;4.17;;;;;;;;;;5051427;28;20804;-82
2022/02/28 14:22:19;;;;;;;5.10;4.17;;;;;;;;;;5016807;28;20441;-83
2022/02/28 14:24:51;;;;;;;5.37;4.83;;;;;;;;;;5049538;28;20445;-82
2022/02/28 14:27:25;;;;;;;4.50;4.07;;;;;;;;;;5020360;28;20430;-84
2022/02/28 14:29:59;;;;;;;4.97;4.20;;;;;;;;;;5032802;28;20449;-84
2022/02/28 14:32:25;;;;;;;5.23;4.77;;;;;;;;;;5029781;28;20454;-84
2022/02/28 14:34:51;;;;;;;4.73;4.37;;;;;;;;;;5032301;28;20442;-83
2022/02/28 14:37:17;;;;;;;5.60;4.17;;;;;;;;;;5023232;28;20481;-83
2022/02/28 14:39:43;;;;;;;4.97;4.47;;;;;;;;;;5062743;28;20469;-82
2022/02/28 14:42:09;;;;;;;4.90;3.97;;;;;;;;;;5005385;28;21230;-82